Aviation Digital Data Service (ADDS)

Output produced by METARs form (2023 UTC 25 April 2018)
found at http://aviationweather.gov/adds/metars/
 
KTYR 251721Z 2518/2618 32008KT P6SM SCT060 BKN250 
     FM260000 33012KT P6SM VCSH OVC030 
     FM260300 32007KT P6SM BKN050 
     FM260600 28005KT P6SM SKC 
     FM260900 31006KT P6SM SKC